Coatbridge, United Kingdom
Current Conditions -  °F | °C
As of 4:20 PM on Thursday 23 Oct 2014 (Local Time) from EGPF Reporting Station
Light Rain Light Rain  
Wind Chill: 55°   Ceiling: 1100
Heat Index: 55°   Visibility: 6mi
Dew Point: 54°   Wind: 15mph
Humidity: 94%   Direction: 220°SW
Pressure: 29.71"   Gusts: NA
Location:  55.86°N, 4.03°W
Report Text: EGPF 231520Z AUTO 22013KT 9999 -RA BKN011/// OVC023/// //////TCU 13/12 Q1006 RERA
Loading
Personal Weather Stations






























Interactive Weather Map New forecast layout! Learn more

10-Day Weather Forecast

Advertisements
Track Severe Weather on mobile